Terminal Aerodrome Forecast
Issued by NWS

Home | Current Version | Previous Version | Text Only | Print | Product List | Glossary On
Versions: 1 2 3 4 5 6 7 8 9 10 11 12 13 14 15 16 17 18 19 20 21 22 23 24 25 26 27 28
000
FTUS42 KGSP 172300
TAFGMU
TAF
KGMU 172333Z 1800/1824 07007KT P6SM SCT045
     FM180300 04004KT P6SM BKN045
     FM180500 02004KT 5SM BR SCT015 BKN025
     FM180700 02004KT 5SM BR BKN016
     FM181000 01005KT 5SM BR BKN009
     FM181300 02005KT P6SM BKN015
     FM181500 04006KT P6SM BKN045
     FM181700 05005KT P6SM SCT050=

USA.gov is the U.S. government's official web portal to all federal, state and local government web resources and services.